Time;durP1;ratioP1;P1;durP2;ratioP2;P2;SDS_P1;SDS_P2;PMS_P1;PMS_P2;Temp;Humidity;BMP_temperature;BMP_pressure;BME280_temperature;BME280_humidity;BME280_pressure;Samples;Min_cycle;Max_cycle;Signal;HPM_P1;HPM_P2
2021/05/31 00:02:20;;;;;;;13.38;6.88;;;;;;;13.29;59.04;101493.06;4986510;28;20487;-69
2021/05/31 00:04:45;;;;;;;17.75;6.80;;;;;;;13.25;59.28;101494.78;4986746;28;20034;-70
2021/05/31 00:07:20;;;;;;;12.75;6.85;;;;;;;13.26;59.50;101494.78;4986486;28;20427;-69
2021/05/31 00:09:47;;;;;;;11.88;6.70;;;;;;;13.27;59.87;101495.66;4986457;28;20026;-70
2021/05/31 00:12:16;;;;;;;13.65;6.65;;;;;;;13.27;59.64;101493.91;4986388;28;20027;-70
2021/05/31 00:14:43;;;;;;;11.57;7.28;;;;;;;13.24;59.60;101495.66;4986330;28;20487;-70
2021/05/31 00:17:08;;;;;;;11.48;7.15;;;;;;;13.22;60.59;101505.22;4986378;28;20034;-70
2021/05/31 00:19:34;;;;;;;12.40;7.45;;;;;;;13.19;61.08;101498.28;4986450;28;20033;-69
2021/05/31 00:22:00;;;;;;;13.35;7.38;;;;;;;13.15;61.33;101493.94;4986133;28;20053;-70
2021/05/31 00:24:25;;;;;;;11.70;6.50;;;;;;;13.16;62.12;101502.63;4968820;28;20026;-70
2021/05/31 00:26:51;;;;;;;14.38;8.13;;;;;;;13.12;62.06;101493.94;4986108;28;20058;-69
2021/05/31 00:29:21;;;;;;;13.52;7.25;;;;;;;13.10;62.50;101493.09;4968586;28;20122;-71
2021/05/31 00:31:47;;;;;;;14.27;7.30;;;;;;;13.08;63.31;101494.81;4986142;28;20102;-70
2021/05/31 00:34:13;;;;;;;14.40;7.18;;;;;;;13.08;63.56;101493.06;4968646;28;20041;-71
2021/05/31 00:36:39;;;;;;;10.90;7.03;;;;;;;13.07;63.56;101485.25;4968556;28;20062;-69
2021/05/31 00:39:04;;;;;;;11.77;6.45;;;;;;;13.10;64.06;101480.91;4986135;28;20018;-69
2021/05/31 00:41:30;;;;;;;11.55;6.53;;;;;;;13.09;64.25;101476.56;4968684;28;20086;-70
2021/05/31 00:43:56;;;;;;;10.13;6.53;;;;;;;13.09;64.36;101479.19;4986085;28;20098;-70
2021/05/31 00:46:24;;;;;;;12.77;6.72;;;;;;;13.02;64.40;101470.50;4986072;28;20034;-70
2021/05/31 00:48:50;;;;;;;11.55;6.53;;;;;;;13.06;64.14;101479.19;4985933;28;20037;-69
2021/05/31 00:51:15;;;;;;;15.40;6.95;;;;;;;13.10;63.91;101480.91;4968499;28;20117;-71
2021/05/31 00:53:41;;;;;;;12.05;6.50;;;;;;;13.12;63.66;101487.00;4968384;28;20030;-70
2021/05/31 00:56:06;;;;;;;13.63;6.43;;;;;;;13.11;63.94;101487.88;4985650;28;20130;-70
2021/05/31 00:58:32;;;;;;;12.32;7.15;;;;;;;13.12;64.08;101487.00;4968228;28;20098;-71
2021/05/31 01:01:00;;;;;;;13.40;7.03;;;;;;;13.09;65.16;101494.81;4985703;28;20511;-70
2021/05/31 01:03:27;;;;;;;15.40;8.35;;;;;;;13.09;65.11;101491.34;4968100;28;20031;-70
2021/05/31 01:05:54;;;;;;;14.00;7.25;;;;;;;13.05;65.75;101487.84;4985767;28;20019;-71
2021/05/31 01:08:53;;;;;;;13.52;8.10;;;;;;;13.00;66.28;101485.25;4985806;28;20033;-70
2021/05/31 01:11:49;;;;;;;14.32;7.45;;;;;;;12.96;67.11;101487.88;4985192;28;20042;-70
2021/05/31 01:14:53;;;;;;;13.85;8.05;;;;;;;12.94;68.05;101494.84;4984952;28;20058;-70
2021/05/31 01:17:26;;;;;;;14.95;8.32;;;;;;;12.84;68.11;101489.63;4968216;28;20019;-70
2021/05/31 01:19:52;;;;;;;11.82;7.65;;;;;;;12.84;68.37;101494.81;4985458;28;20086;-70
2021/05/31 01:22:20;;;;;;;15.73;8.73;;;;;;;12.81;68.45;101494.81;4967694;28;20033;-69
2021/05/31 01:24:49;;;;;;;17.27;8.82;;;;;;;12.79;68.49;101501.81;4985480;28;20027;-71
2021/05/31 01:27:20;;;;;;;18.05;9.43;;;;;;;12.75;68.46;101497.44;4967714;28;20022;-69
2021/05/31 01:30:09;;;;;;;17.85;9.98;;;;;;;12.71;69.10;101488.78;4985105;28;20086;-69
2021/05/31 01:32:43;;;;;;;18.35;10.13;;;;;;;12.70;68.41;101489.63;4985130;28;20027;-71
2021/05/31 01:35:20;;;;;;;20.77;10.07;;;;;;;12.68;68.04;101494.00;4985297;28;20030;-69
2021/05/31 01:37:46;;;;;;;18.77;11.63;;;;;;;12.63;68.29;101488.78;4985115;28;20027;-70
2021/05/31 01:40:14;;;;;;;18.10;10.23;;;;;;;12.60;68.54;101501.78;4985117;28;20023;-70
2021/05/31 01:42:41;;;;;;;21.92;10.80;;;;;;;12.57;68.63;101496.56;4984810;28;20119;-69
2021/05/31 01:45:10;;;;;;;22.00;11.68;;;;;;;12.53;68.60;101492.22;4967382;28;20030;-69
2021/05/31 01:47:36;;;;;;;22.85;11.75;;;;;;;12.49;68.80;101490.50;4967578;28;20027;-68
2021/05/31 01:50:04;;;;;;;20.55;11.73;;;;;;;12.44;68.92;101485.28;4984805;28;20022;-70
2021/05/31 01:52:30;;;;;;;21.00;11.35;;;;;;;12.43;69.11;101490.50;4984826;28;20033;-69
2021/05/31 01:54:57;;;;;;;19.77;11.88;;;;;;;12.38;68.94;101491.34;4967113;28;20138;-70
2021/05/31 01:57:23;;;;;;;22.48;12.27;;;;;;;12.36;69.10;101489.59;4984753;28;20507;-69
2021/05/31 01:59:51;;;;;;;20.63;12.55;;;;;;;12.32;68.73;101490.44;4984459;28;20121;-69
2021/05/31 02:02:17;;;;;;;20.42;11.82;;;;;;;12.29;69.09;101487.84;4984580;28;20058;-70
2021/05/31 02:04:43;;;;;;;20.65;11.75;;;;;;;12.21;69.08;101478.28;4984698;28;20038;-70
2021/05/31 02:07:09;;;;;;;23.35;12.65;;;;;;;12.23;69.32;101487.00;4984508;28;20022;-70
2021/05/31 02:09:34;;;;;;;20.58;11.68;;;;;;;12.22;68.93;101486.97;4984902;28;20027;-70
2021/05/31 02:12:09;;;;;;;20.85;11.75;;;;;;;12.18;69.14;101485.22;4984543;28;20034;-70
2021/05/31 02:14:43;;;;;;;25.50;12.77;;;;;;;12.16;69.06;101484.38;4984332;28;20038;-70
2021/05/31 02:17:31;;;;;;;22.33;11.13;;;;;;;12.11;69.05;101480.00;4983907;28;20033;-70
2021/05/31 02:20:04;;;;;;;19.85;11.02;;;;;;;12.06;69.16;101460.84;4983518;28;20022;-70
2021/05/31 02:22:32;;;;;;;23.67;10.25;;;;;;;12.07;69.19;101470.44;4965797;28;20034;-70
2021/05/31 02:24:57;;;;;;;16.02;10.50;;;;;;;12.06;69.28;101470.44;4983359;28;20034;-70
2021/05/31 02:27:24;;;;;;;20.98;10.18;;;;;;;12.08;69.27;101474.78;4984348;28;20022;-70
2021/05/31 02:29:49;;;;;;;18.98;11.25;;;;;;;12.03;69.34;101469.53;4984161;28;20031;-70
2021/05/31 02:32:15;;;;;;;19.90;9.68;;;;;;;12.07;69.25;101477.34;4967107;28;20356;-70
2021/05/31 02:34:40;;;;;;;19.25;10.40;;;;;;;12.05;69.35;101477.34;4984291;28;20027;-70
2021/05/31 02:37:08;;;;;;;19.67;10.95;;;;;;;12.05;69.34;101472.16;4967003;28;20019;-70
2021/05/31 02:39:34;;;;;;;21.35;10.25;;;;;;;12.01;69.32;101460.84;4984326;28;20022;-70
2021/05/31 02:42:00;;;;;;;16.52;9.45;;;;;;;12.03;69.30;101460.84;4966613;28;20050;-70
2021/05/31 02:44:25;;;;;;;18.23;10.77;;;;;;;12.02;69.23;101472.13;4984307;28;20019;-70
2021/05/31 02:46:50;;;;;;;15.30;9.55;;;;;;;11.96;69.18;101461.72;4984899;28;20044;-70
2021/05/31 02:49:16;;;;;;;17.75;9.15;;;;;;;11.98;69.20;101478.22;4983964;28;20039;-70
2021/05/31 02:51:42;;;;;;;17.67;8.55;;;;;;;12.00;69.26;101474.75;4984066;28;20037;-71
2021/05/31 02:54:09;;;;;;;20.35;9.27;;;;;;;12.03;69.26;101474.75;4983954;28;20348;-70
2021/05/31 02:56:34;;;;;;;16.90;8.45;;;;;;;12.07;69.11;101477.34;4983960;28;20059;-70
2021/05/31 02:59:00;;;;;;;14.98;8.90;;;;;;;12.07;68.93;101478.25;4983953;28;20022;-70
2021/05/31 03:01:25;;;;;;;14.63;8.43;;;;;;;12.11;69.02;101480.00;4984005;28;20053;-69
2021/05/31 03:03:51;;;;;;;14.63;8.45;;;;;;;12.13;68.84;101480.88;4966413;28;20027;-69
2021/05/31 03:06:16;;;;;;;19.95;9.15;;;;;;;12.16;69.14;101473.97;4984079;28;20034;-70
2021/05/31 03:08:41;;;;;;;13.77;8.43;;;;;;;12.34;69.52;101479.19;4983889;28;20070;-68
2021/05/31 03:11:07;;;;;;;15.10;7.60;;;;;;;12.52;69.91;101470.50;4966700;28;20058;-69
2021/05/31 03:13:32;;;;;;;12.10;7.80;;;;;;;12.86;69.72;101474.00;4983866;28;20019;-68
2021/05/31 03:15:58;;;;;;;15.73;7.90;;;;;;;13.29;69.71;101475.66;4983896;28;20050;-69
2021/05/31 03:18:23;;;;;;;12.63;7.07;;;;;;;13.70;69.32;101462.50;4983778;28;20025;-69
2021/05/31 03:20:48;;;;;;;8.93;6.13;;;;;;;14.18;68.76;101472.69;4984024;28;20030;-70
2021/05/31 03:23:14;;;;;;;10.73;6.93;;;;;;;14.71;67.91;101472.28;4983831;28;20027;-70
2021/05/31 03:25:40;;;;;;;9.45;6.85;;;;;;;15.23;66.86;101464.84;4966448;28;20061;-70
2021/05/31 03:28:06;;;;;;;7.63;6.30;;;;;;;15.73;65.85;101463.41;4982809;28;20489;-70
2021/05/31 03:30:31;;;;;;;9.10;5.63;;;;;;;16.20;64.40;101452.28;4965173;28;20026;-69
2021/05/31 03:32:57;;;;;;;9.40;6.18;;;;;;;16.74;62.71;101455.81;4983600;28;20019;-70
2021/05/31 03:35:23;;;;;;;9.60;6.72;;;;;;;17.14;60.89;101459.47;4966465;28;20034;-70
2021/05/31 03:37:49;;;;;;;12.25;5.97;;;;;;;17.48;59.59;101457.94;4987111;28;20031;-69
2021/05/31 03:40:16;;;;;;;11.65;6.22;;;;;;;17.77;58.30;101459.09;4987352;28;20061;-70
2021/05/31 03:42:41;;;;;;;8.15;5.72;;;;;;;18.03;57.34;101456.78;4969556;28;20030;-70
2021/05/31 03:45:09;;;;;;;9.30;5.65;;;;;;;18.31;56.11;101461.41;4969513;28;20380;-70
2021/05/31 03:47:35;;;;;;;8.95;5.68;;;;;;;18.57;55.40;101458.16;4969610;28;20026;-70
2021/05/31 03:50:00;;;;;;;8.40;5.75;;;;;;;19.01;54.32;101459.63;4987117;28;20031;-71
2021/05/31 03:52:26;;;;;;;10.25;5.35;;;;;;;19.50;53.40;101458.31;4987220;28;20019;-71
2021/05/31 03:54:51;;;;;;;9.90;5.72;;;;;;;19.88;51.71;101444.91;4987040;28;20038;-70
2021/05/31 03:57:16;;;;;;;7.63;4.88;;;;;;;20.30;50.81;101455.00;4986948;28;20026;-70
2021/05/31 03:59:42;;;;;;;8.18;5.32;;;;;;;20.77;49.22;101452.59;4986877;28;20031;-70
2021/05/31 04:02:08;;;;;;;12.27;5.40;;;;;;;21.10;48.39;101454.13;4986739;28;20106;-70
2021/05/31 04:04:45;;;;;;;7.15;5.05;;;;;;;21.53;47.13;101454.31;4986990;28;20475;-70
2021/05/31 04:12:33;;;;;;;8.63;5.05;;;;;;;22.34;45.23;101445.00;4986843;28;20029;-72
2021/05/31 04:14:58;;;;;;;9.68;4.82;;;;;;;22.76;44.37;101445.94;4986465;28;20026;-72
2021/05/31 04:17:24;;;;;;;10.73;5.10;;;;;;;23.30;43.15;101442.66;4986746;28;20022;-68
2021/05/31 04:19:49;;;;;;;8.63;4.47;;;;;;;23.48;42.64;101446.25;4986686;28;20027;-72
2021/05/31 04:22:15;;;;;;;8.45;4.30;;;;;;;23.74;41.74;101438.88;4986577;28;20074;-71
2021/05/31 04:24:40;;;;;;;10.07;4.90;;;;;;;24.26;41.04;101439.09;4986661;28;20030;-71
2021/05/31 04:27:06;;;;;;;9.93;4.80;;;;;;;24.55;40.41;101434.09;4986521;28;20027;-69
2021/05/31 04:29:31;;;;;;;7.55;4.85;;;;;;;25.14;39.10;101432.84;4986262;28;20046;-68
2021/05/31 04:31:57;;;;;;;5.75;4.43;;;;;;;25.39;38.19;101431.47;4986736;28;20034;-70
2021/05/31 04:34:22;;;;;;;7.75;4.00;;;;;;;25.52;37.60;101434.31;4986066;28;20458;-69
2021/05/31 04:36:47;;;;;;;8.57;4.05;;;;;;;25.68;37.04;101425.50;4986490;28;20105;-70
2021/05/31 04:39:13;;;;;;;9.15;4.45;;;;;;;25.93;36.74;101418.78;4986283;28;20030;-67
2021/05/31 04:41:39;;;;;;;6.65;4.30;;;;;;;26.12;36.36;101423.88;4986196;28;20078;-66
2021/05/31 04:44:06;;;;;;;8.88;4.78;;;;;;;26.26;35.84;101427.56;4985975;28;20015;-59
2021/05/31 04:46:31;;;;;;;8.95;4.82;;;;;;;26.50;35.33;101433.25;4986047;28;20052;-68
2021/05/31 04:48:56;;;;;;;7.80;5.10;;;;;;;26.59;34.84;101427.38;4985292;28;20027;-65
2021/05/31 04:51:24;;;;;;;10.48;5.95;;;;;;;26.57;34.86;101420.41;4986316;28;20414;-66
2021/05/31 04:53:50;;;;;;;7.95;4.97;;;;;;;26.64;34.10;101432.41;4986064;28;20019;-65
2021/05/31 04:56:16;;;;;;;9.43;5.93;;;;;;;26.51;34.70;101421.66;4985916;28;20043;-64
2021/05/31 04:58:42;;;;;;;12.00;6.15;;;;;;;26.52;34.34;101427.84;4985893;28;20031;-67
2021/05/31 05:01:07;;;;;;;11.32;5.50;;;;;;;26.58;34.40;101430.13;4985792;28;20086;-67
2021/05/31 05:03:33;;;;;;;12.20;6.03;;;;;;;26.90;33.90;101421.13;4985562;28;20031;-65
2021/05/31 05:05:58;;;;;;;9.40;5.88;;;;;;;27.07;32.82;101410.28;4985824;28;20032;-67
2021/05/31 05:08:23;;;;;;;8.45;5.53;;;;;;;27.31;32.86;101411.50;4985649;28;20022;-67
2021/05/31 05:10:48;;;;;;;7.38;5.20;;;;;;;27.30;32.69;101399.13;4985531;28;20037;-68
2021/05/31 05:13:14;;;;;;;8.02;5.32;;;;;;;27.39;32.99;101419.00;4985454;28;20026;-69
2021/05/31 05:15:39;;;;;;;9.63;4.78;;;;;;;27.42;32.88;101413.47;4985277;28;20035;-68
2021/05/31 05:18:05;;;;;;;7.63;4.85;;;;;;;27.95;32.79;101410.94;4985571;28;20023;-70
2021/05/31 05:20:32;;;;;;;7.22;4.60;;;;;;;28.18;31.95;101405.84;4985558;28;20086;-71
2021/05/31 05:22:59;;;;;;;8.18;5.40;;;;;;;28.53;31.45;101409.75;4985168;28;20018;-71
2021/05/31 05:25:25;;;;;;;8.55;6.50;;;;;;;28.42;31.07;101409.66;4968090;28;20117;-71
2021/05/31 05:27:52;;;;;;;8.55;6.32;;;;;;;28.20;31.13;101406.59;4985170;28;20239;-71
2021/05/31 05:30:24;;;;;;;8.63;6.18;;;;;;;27.93;31.15;101406.66;4984958;28;20029;-70
2021/05/31 05:32:51;;;;;;;10.38;5.78;;;;;;;27.60;31.59;101414.09;4985343;28;20029;-70
2021/05/31 05:48:09;;;;;;;6.45;5.10;;;;;;;28.00;30.77;101402.63;4985481;28;20090;-70
2021/05/31 05:50:34;;;;;;;6.38;4.70;;;;;;;28.07;30.23;101403.91;4984957;28;20038;-70
2021/05/31 05:52:59;;;;;;;5.47;4.10;;;;;;;28.07;29.69;101398.56;4984803;28;20026;-70
2021/05/31 05:55:25;;;;;;;7.00;3.97;;;;;;;28.10;28.92;101405.50;4984916;28;20054;-70
2021/05/31 05:57:50;;;;;;;4.78;4.15;;;;;;;27.64;29.56;101401.38;4984852;28;20501;-70
2021/05/31 06:00:20;;;;;;;5.88;4.15;;;;;;;27.38;30.04;101396.78;4984497;28;20046;-70
2021/05/31 06:02:45;;;;;;;6.80;4.38;;;;;;;27.25;30.27;101406.56;4984555;28;20030;-68
2021/05/31 06:05:12;;;;;;;4.75;4.03;;;;;;;27.10;29.92;101403.91;4984819;28;20082;-70
2021/05/31 06:07:37;;;;;;;5.13;3.90;;;;;;;27.12;30.19;101402.00;4984581;28;20037;-69
2021/05/31 06:10:04;;;;;;;7.53;3.97;;;;;;;27.55;29.31;101397.53;4984876;28;20030;-70
2021/05/31 06:12:30;;;;;;;4.93;3.90;;;;;;;27.54;28.88;101394.00;4984554;28;20470;-71
2021/05/31 06:14:55;;;;;;;4.97;4.07;;;;;;;27.20;28.81;101397.06;4984522;28;20408;-70
2021/05/31 06:17:20;;;;;;;5.05;3.50;;;;;;;27.12;28.59;101393.16;4967420;28;20027;-70
2021/05/31 06:19:46;;;;;;;4.55;4.07;;;;;;;26.83;28.89;101394.84;4984596;28;20054;-70
2021/05/31 06:22:20;;;;;;;3.30;3.00;;;;;;;26.65;29.23;101399.50;4985213;28;20023;-70
2021/05/31 06:24:46;;;;;;;5.40;3.47;;;;;;;26.94;29.00;101403.97;4984721;28;20031;-71
2021/05/31 06:27:12;;;;;;;3.53;2.95;;;;;;;27.30;27.82;101397.28;4967014;28;20022;-71
2021/05/31 06:29:37;;;;;;;4.20;3.00;;;;;;;27.53;28.35;101394.09;4984365;28;20038;-71
2021/05/31 06:32:03;;;;;;;3.15;2.63;;;;;;;27.64;25.77;101390.72;4984342;28;20054;-70
2021/05/31 06:34:28;;;;;;;4.32;3.05;;;;;;;27.17;26.31;101394.59;4966824;28;20075;-70
2021/05/31 06:36:55;;;;;;;4.63;2.80;;;;;;;26.82;26.62;101389.63;4984482;28;20175;-70
2021/05/31 06:39:23;;;;;;;4.32;2.63;;;;;;;26.70;27.02;101397.41;4984450;28;20037;-70
2021/05/31 06:41:49;;;;;;;5.63;2.97;;;;;;;26.77;26.65;101397.03;4966605;28;20371;-71
2021/05/31 06:44:16;;;;;;;4.60;3.28;;;;;;;26.86;26.96;101396.47;4966542;28;20030;-70
2021/05/31 06:46:41;;;;;;;5.38;3.10;;;;;;;27.03;26.52;101384.78;4984003;28;20134;-70
2021/05/31 06:49:07;;;;;;;5.03;3.05;;;;;;;27.41;26.24;101393.97;4984272;28;20025;-70
2021/05/31 06:51:33;;;;;;;4.50;2.70;;;;;;;27.64;25.86;101388.91;4967104;28;20137;-70
2021/05/31 06:53:58;;;;;;;3.75;2.75;;;;;;;27.86;25.87;101384.84;4984225;28;20026;-70
2021/05/31 06:56:24;;;;;;;5.60;2.45;;;;;;;28.27;25.01;101385.69;4984278;28;20047;-71
2021/05/31 06:58:50;;;;;;;4.38;3.35;;;;;;;28.01;24.78;101387.44;4984551;28;20031;-72
2021/05/31 07:01:16;;;;;;;3.95;2.75;;;;;;;27.90;25.11;101383.69;4984039;28;20023;-71
2021/05/31 07:03:41;;;;;;;4.55;2.83;;;;;;;27.91;24.90;101380.06;4984047;28;20042;-70
2021/05/31 07:06:07;;;;;;;3.17;2.60;;;;;;;27.90;24.27;101375.69;4983971;28;20041;-71
2021/05/31 07:08:32;;;;;;;5.78;3.10;;;;;;;27.86;24.39;101384.00;4984082;28;20019;-70
2021/05/31 07:11:01;;;;;;;4.85;2.80;;;;;;;28.05;24.58;101378.28;4985237;28;20082;-71
2021/05/31 07:13:28;;;;;;;6.00;2.80;;;;;;;28.21;24.43;101378.94;4987649;28;20057;-71
2021/05/31 07:15:54;;;;;;;5.05;3.25;;;;;;;28.48;24.55;101379.00;4969894;28;20023;-71
2021/05/31 07:18:20;;;;;;;6.18;2.80;;;;;;;28.46;24.01;101373.75;4987621;28;20033;-71
2021/05/31 07:20:48;;;;;;;5.38;2.95;;;;;;;28.53;23.79;101371.53;4987717;28;20530;-70
2021/05/31 07:23:13;;;;;;;4.90;2.70;;;;;;;28.65;23.91;101354.63;4987509;28;20574;-70
2021/05/31 07:25:39;;;;;;;4.25;3.08;;;;;;;28.94;23.68;101362.38;4987750;28;20035;-70
2021/05/31 07:28:05;;;;;;;6.43;2.60;;;;;;;29.20;23.15;101348.97;4986743;28;20042;-69
2021/05/31 07:30:31;;;;;;;3.95;2.58;;;;;;;29.37;23.28;101359.38;4986287;28;20266;-70
2021/05/31 07:32:56;;;;;;;7.68;3.15;;;;;;;29.54;22.95;101352.78;4987334;28;20087;-69
2021/05/31 07:35:22;;;;;;;3.50;2.28;;;;;;;29.54;22.50;101350.97;4987358;28;20034;-70
2021/05/31 07:37:47;;;;;;;4.78;2.67;;;;;;;29.63;22.39;101353.94;4986415;28;20027;-70
2021/05/31 07:40:14;;;;;;;6.22;3.08;;;;;;;29.65;22.88;101342.16;4986541;28;20023;-70
2021/05/31 07:42:40;;;;;;;5.22;2.78;;;;;;;29.92;22.55;101349.06;4968598;28;20081;-70
2021/05/31 07:45:08;;;;;;;4.05;2.97;;;;;;;29.77;22.88;101351.09;4986841;28;20118;-71
2021/05/31 07:47:33;;;;;;;6.47;3.20;;;;;;;29.89;22.75;101337.75;4987421;28;20027;-70
2021/05/31 07:49:59;;;;;;;4.18;2.67;;;;;;;29.72;22.29;101345.22;4987123;28;20054;-70
2021/05/31 07:52:27;;;;;;;4.25;2.90;;;;;;;29.77;22.57;101347.56;4987135;28;20030;-71
2021/05/31 07:54:52;;;;;;;6.22;2.30;;;;;;;29.84;21.07;101348.81;4969437;28;20296;-70
2021/05/31 07:57:18;;;;;;;5.72;3.17;;;;;;;29.95;21.81;101358.69;4987003;28;20050;-70
2021/05/31 07:59:47;;;;;;;6.00;2.47;;;;;;;30.11;21.46;101344.97;4986938;28;20022;-70
2021/05/31 08:02:13;;;;;;;5.30;3.20;;;;;;;30.27;21.17;101351.84;4986975;28;20107;-70
2021/05/31 08:04:39;;;;;;;5.88;2.60;;;;;;;30.51;21.65;101353.56;4969105;28;20023;-70
2021/05/31 08:07:04;;;;;;;5.38;2.47;;;;;;;30.91;21.17;101345.03;4987026;28;20484;-70
2021/05/31 08:09:30;;;;;;;4.40;2.88;;;;;;;31.17;21.15;101342.06;4969828;28;20039;-70
2021/05/31 08:11:57;;;;;;;4.53;2.70;;;;;;;31.27;20.57;101350.19;4986836;28;20031;-71
2021/05/31 08:14:23;;;;;;;4.57;2.60;;;;;;;30.73;21.22;101349.16;4986785;28;20431;-70
2021/05/31 08:16:49;;;;;;;3.40;2.17;;;;;;;30.82;20.32;101337.75;4986482;28;20035;-70
2021/05/31 08:19:16;;;;;;;2.95;2.40;;;;;;;30.82;19.48;101337.75;4986658;28;20023;-70
2021/05/31 08:21:43;;;;;;;5.70;2.38;;;;;;;30.78;19.71;101349.66;4986167;28;20054;-70
2021/05/31 08:24:09;;;;;;;4.68;2.67;;;;;;;30.87;19.33;101335.53;4968580;28;20049;-70
2021/05/31 08:26:37;;;;;;;4.35;2.53;;;;;;;30.88;19.69;101326.53;4986624;28;20108;-70
2021/05/31 08:29:03;;;;;;;3.53;2.80;;;;;;;30.80;20.41;101332.50;4969010;28;20444;-70
2021/05/31 08:31:28;;;;;;;3.72;2.60;;;;;;;30.85;19.71;101344.69;4968845;28;20082;-70
2021/05/31 08:33:53;;;;;;;5.35;2.45;;;;;;;30.74;19.62;101343.69;4986353;28;20027;-70
2021/05/31 08:36:20;;;;;;;4.63;2.60;;;;;;;30.64;19.69;101348.09;4986316;28;20031;-71
2021/05/31 08:38:46;;;;;;;3.83;2.95;;;;;;;30.53;19.90;101344.41;4986180;28;20119;-70
2021/05/31 08:41:11;;;;;;;5.50;2.92;;;;;;;30.55;20.16;101347.84;4986245;28;20031;-70
2021/05/31 08:43:37;;;;;;;6.00;3.10;;;;;;;30.57;20.69;101341.50;4986130;28;20030;-69
2021/05/31 08:46:02;;;;;;;4.15;2.50;;;;;;;30.53;20.33;101327.47;4968396;28;20439;-71
2021/05/31 08:48:28;;;;;;;5.80;2.70;;;;;;;30.83;20.07;101331.41;4986300;28;20023;-71
2021/05/31 08:50:54;;;;;;;3.85;2.60;;;;;;;30.86;19.44;101328.50;4986010;28;20027;-70
2021/05/31 08:53:20;;;;;;;5.60;2.58;;;;;;;30.70;19.88;101347.59;4968692;28;20111;-70
2021/05/31 08:55:46;;;;;;;3.53;2.75;;;;;;;30.92;20.09;101337.84;4985872;28;20073;-70
2021/05/31 08:58:11;;;;;;;4.95;2.65;;;;;;;30.91;19.69;101334.31;4985656;28;20100;-70
2021/05/31 09:00:37;;;;;;;4.70;2.38;;;;;;;31.12;19.54;101335.38;4986027;28;20030;-70
2021/05/31 09:03:05;;;;;;;3.45;2.53;;;;;;;31.37;19.43;101323.50;4986100;28;20019;-70
2021/05/31 09:05:39;;;;;;;2.90;2.38;;;;;;;31.65;18.94;101331.06;4968780;28;20027;-71
2021/05/31 09:08:12;;;;;;;3.00;2.47;;;;;;;31.64;18.78;101324.00;4986028;28;20027;-70
2021/05/31 09:10:43;;;;;;;3.42;2.70;;;;;;;31.83;19.75;101338.53;4986063;28;20024;-69
2021/05/31 09:13:09;;;;;;;2.92;2.15;;;;;;;32.11;19.09;101336.19;4985816;28;20034;-70
2021/05/31 09:15:35;;;;;;;5.55;2.65;;;;;;;32.17;18.84;101340.19;4985652;28;20090;-70
2021/05/31 09:18:00;;;;;;;3.72;2.10;;;;;;;32.07;18.93;101334.75;4986101;28;20041;-71
2021/05/31 09:20:26;;;;;;;3.33;2.40;;;;;;;32.01;19.44;101336.13;4985676;28;20058;-70
2021/05/31 09:22:55;;;;;;;5.97;2.58;;;;;;;31.91;19.71;101331.53;4985764;28;20058;-70
2021/05/31 09:25:30;;;;;;;5.72;3.03;;;;;;;32.03;19.93;101331.50;4985767;28;20023;-70
2021/05/31 09:27:56;;;;;;;4.47;2.42;;;;;;;32.19;20.38;101332.84;4968200;28;20049;-70
2021/05/31 09:30:37;;;;;;;4.40;2.90;;;;;;;32.34;20.81;101333.34;4968074;28;20050;-70
2021/05/31 09:33:03;;;;;;;6.53;3.45;;;;;;;32.38;20.90;101332.09;4985682;28;20019;-70
2021/05/31 09:35:29;;;;;;;4.43;2.90;;;;;;;32.16;21.13;101331.25;4985271;28;20027;-70
2021/05/31 09:38:00;;;;;;;8.00;2.78;;;;;;;32.20;21.06;101331.84;4985317;28;20031;-69
2021/05/31 09:40:26;;;;;;;5.57;2.83;;;;;;;32.49;20.60;101333.84;4985264;28;20478;-70
2021/05/31 09:42:58;;;;;;;4.85;3.30;;;;;;;32.53;20.76;101327.22;4984989;28;20109;-70
2021/05/31 09:45:25;;;;;;;3.92;3.38;;;;;;;32.20;20.28;101323.78;4985036;28;20045;-70
2021/05/31 09:47:51;;;;;;;4.05;3.45;;;;;;;32.01;21.36;101322.72;4985303;28;20038;-70
2021/05/31 09:50:28;;;;;;;4.70;4.20;;;;;;;32.05;21.70;101329.50;4985177;28;20031;-69
2021/05/31 09:53:14;;;;;;;7.28;3.85;;;;;;;31.83;21.99;101327.78;4967842;28;20023;-70
2021/05/31 09:55:45;;;;;;;4.75;3.47;;;;;;;31.93;22.19;101322.50;4984952;28;20051;-70
2021/05/31 09:58:16;;;;;;;6.28;4.00;;;;;;;31.94;22.61;101321.50;4984945;28;20026;-70
2021/05/31 10:00:48;;;;;;;4.63;4.13;;;;;;;32.27;22.66;101319.59;4967241;28;20117;-70
2021/05/31 10:06:05;;;;;;;5.65;4.25;;;;;;;32.80;22.59;101306.94;4985149;28;20023;-70
2021/05/31 10:11:01;;;;;;;5.82;4.22;;;;;;;32.35;22.34;101305.50;4985205;28;20047;-70
2021/05/31 10:13:28;;;;;;;4.63;3.80;;;;;;;32.03;21.77;101301.97;4984763;28;20094;-70
2021/05/31 10:15:55;;;;;;;4.97;4.05;;;;;;;31.61;22.74;101298.28;4984740;28;20069;-70
2021/05/31 10:18:20;;;;;;;5.63;3.95;;;;;;;31.61;22.16;101287.53;4967454;28;20079;-70
2021/05/31 10:20:47;;;;;;;6.63;4.93;;;;;;;31.28;22.48;101284.84;4984779;28;20030;-70
2021/05/31 10:23:14;;;;;;;5.78;4.47;;;;;;;31.17;22.56;101284.88;4984865;28;20026;-69
2021/05/31 10:25:45;;;;;;;5.35;4.20;;;;;;;31.02;22.66;101287.84;4984814;28;20027;-70
2021/05/31 10:28:21;;;;;;;5.35;4.00;;;;;;;30.77;22.78;101289.84;4984873;28;20041;-70
2021/05/31 10:31:08;;;;;;;9.23;4.65;;;;;;;30.77;23.48;101288.97;4984543;28;20061;-69
2021/05/31 10:33:40;;;;;;;4.72;4.22;;;;;;;31.00;23.45;101272.88;4984472;28;20027;-71
2021/05/31 10:36:19;;;;;;;5.07;4.22;;;;;;;31.08;22.83;101278.47;4967237;28;20077;-69
2021/05/31 10:38:50;;;;;;;9.00;5.10;;;;;;;30.98;23.46;101272.16;4967113;28;20030;-71
2021/05/31 10:41:17;;;;;;;;;;;;;;;30.70;24.29;101285.97;4967870;28;20427;-71
2021/05/31 10:43:48;;;;;;;8.07;5.00;;;;;;;30.80;23.76;101280.72;4966822;28;19914;-71
2021/05/31 10:46:17;;;;;;;7.93;5.70;;;;;;;30.57;23.48;101271.84;4986120;28;20069;-70
2021/05/31 10:48:45;;;;;;;8.38;6.00;;;;;;;30.28;24.55;101274.06;4988739;28;20042;-71
2021/05/31 10:51:14;;;;;;;7.95;6.63;;;;;;;30.23;24.37;101283.41;4988546;28;20030;-70
2021/05/31 10:53:40;;;;;;;7.65;6.00;;;;;;;29.97;24.90;101276.44;4988535;28;20038;-70
2021/05/31 10:56:11;;;;;;;10.05;5.45;;;;;;;29.37;25.57;101280.03;4988322;28;20077;-71
2021/05/31 10:58:38;;;;;;;;;;;;;;;28.53;25.61;101278.88;4988845;28;20109;-70
2021/05/31 11:01:09;;;;;;;12.88;6.95;;;;;;;27.67;27.68;101276.72;4970922;28;19910;-69
2021/05/31 11:03:49;;;;;;;13.40;7.85;;;;;;;26.98;29.17;101282.97;4988308;28;20051;-70
2021/05/31 11:06:21;;;;;;;15.85;8.65;;;;;;;26.55;30.19;101282.06;4988535;28;20018;-70
2021/05/31 11:08:55;;;;;;;11.65;8.55;;;;;;;26.13;31.09;101279.28;4988378;28;20271;-71
2021/05/31 11:11:32;;;;;;;14.45;8.43;;;;;;;25.79;31.44;101281.28;4988499;28;20038;-72
2021/05/31 11:14:00;;;;;;;15.80;8.88;;;;;;;25.57;31.88;101282.53;4988122;28;20026;-70
2021/05/31 11:16:26;;;;;;;16.58;9.18;;;;;;;25.27;32.22;101283.34;4970438;28;20098;-70
2021/05/31 11:19:00;;;;;;;12.45;8.43;;;;;;;24.83;32.43;101273.31;4988161;28;20018;-70
2021/05/31 11:21:35;;;;;;;14.68;8.55;;;;;;;24.59;32.54;101272.84;4988271;28;20034;-71
2021/05/31 11:24:10;;;;;;;13.32;8.45;;;;;;;24.22;32.93;101265.94;4987844;28;20027;-70
2021/05/31 11:26:38;;;;;;;15.75;8.10;;;;;;;23.83;33.45;101275.00;4987824;28;20070;-70
2021/05/31 11:29:06;;;;;;;12.93;8.68;;;;;;;23.40;33.85;101269.09;4987048;28;20369;-70
2021/05/31 11:31:33;;;;;;;16.15;8.68;;;;;;;22.85;34.93;101273.44;4969660;28;20023;-71
2021/05/31 11:33:58;;;;;;;12.30;7.78;;;;;;;22.47;35.52;101268.09;4987825;28;20023;-71
2021/05/31 11:36:37;;;;;;;13.35;7.93;;;;;;;22.19;36.52;101266.69;4987724;28;20069;-70
2021/05/31 11:39:10;;;;;;;11.68;8.13;;;;;;;21.95;37.29;101272.13;4987736;28;20549;-71
2021/05/31 11:41:45;;;;;;;16.75;9.27;;;;;;;21.73;38.03;101273.84;4970265;28;20019;-72
2021/05/31 11:44:31;;;;;;;16.70;8.45;;;;;;;21.46;38.37;101265.25;4969916;28;20518;-72
2021/05/31 11:47:02;;;;;;;17.75;9.20;;;;;;;21.20;38.44;101268.03;4986919;28;20034;-71
2021/05/31 11:49:29;;;;;;;13.57;8.20;;;;;;;20.92;38.50;101261.22;4987465;28;20394;-71